createdAt,value
2019-03-30T00:03:48.424Z,50.90
2019-03-30T00:07:57.270Z,50.90
2019-03-30T00:12:05.761Z,51.10
2019-03-30T00:16:11.998Z,51.10
2019-03-30T00:20:18.421Z,51.20
2019-03-30T00:24:25.315Z,51.30
2019-03-30T00:28:33.226Z,51.40
2019-03-30T00:32:39.563Z,51.40
2019-03-30T00:36:46.487Z,51.50
2019-03-30T00:40:52.733Z,51.50
2019-03-30T00:44:59.047Z,51.60
2019-03-30T00:49:06.142Z,51.70
2019-03-30T00:53:14.921Z,51.80
2019-03-30T00:57:21.475Z,51.80
2019-03-30T01:01:28.212Z,51.90
2019-03-30T01:05:36.757Z,52.00
2019-03-30T01:09:43.016Z,52.00
2019-03-30T01:13:51.567Z,52.10
2019-03-30T01:17:57.854Z,52.20
2019-03-30T01:22:04.130Z,52.30
2019-03-30T01:26:10.366Z,52.40
2019-03-30T01:30:22.926Z,52.40
2019-03-30T01:34:24.684Z,52.50
2019-03-30T01:38:31.658Z,52.60
2019-03-30T01:42:38.030Z,52.70
2019-03-30T01:46:44.569Z,52.70
2019-03-30T01:50:51.490Z,53.20
2019-03-30T01:54:57.843Z,52.80
2019-03-30T01:59:06.472Z,53.00
2019-03-30T02:03:12.923Z,53.00
2019-03-30T02:07:19.327Z,53.90
2019-03-30T02:11:25.766Z,53.20
2019-03-30T02:15:32.276Z,53.80
2019-03-30T02:19:40.698Z,53.30
2019-03-30T02:23:47.275Z,53.40
2019-03-30T02:27:53.561Z,53.50
2019-03-30T02:32:00.184Z,53.60
2019-03-30T02:36:11.179Z,53.70
2019-03-30T02:40:17.667Z,53.70
2019-03-30T02:44:25.861Z,53.80
2019-03-30T02:48:32.150Z,53.80
2019-03-30T02:52:38.423Z,53.90
2019-03-30T02:56:47.283Z,54.00
2019-03-30T03:00:57.081Z,54.20
2019-03-30T03:05:03.583Z,54.20
2019-03-30T03:09:10.699Z,54.20
2019-03-30T03:13:17.065Z,54.10
2019-03-30T03:17:24.522Z,54.40
2019-03-30T03:21:31.088Z,54.40
2019-03-30T03:25:38.750Z,54.50
2019-03-30T03:29:46.382Z,54.60
2019-03-30T03:33:52.604Z,54.60
2019-03-30T03:37:59.068Z,54.70
2019-03-30T03:42:05.406Z,54.70
2019-03-30T03:46:14.182Z,54.90
2019-03-30T03:50:51.599Z,54.80
2019-03-30T03:54:57.905Z,55.00
2019-03-30T03:59:05.207Z,55.00
2019-03-30T04:03:12.285Z,55.10
2019-03-30T04:07:19.890Z,55.10
2019-03-30T04:11:26.344Z,55.20
2019-03-30T04:15:34.070Z,55.30
2019-03-30T04:19:41.760Z,55.30
2019-03-30T04:23:49.140Z,55.40
2019-03-30T04:27:55.343Z,55.50
2019-03-30T04:32:01.834Z,55.50
2019-03-30T04:36:08.244Z,55.50
2019-03-30T04:40:16.809Z,55.60
2019-03-30T04:44:24.539Z,55.70
2019-03-30T04:48:31.084Z,55.70
2019-03-30T04:52:37.413Z,55.80
2019-03-30T04:56:46.191Z,55.80
2019-03-30T05:00:55.373Z,55.80
2019-03-30T05:05:03.414Z,56.00
2019-03-30T05:09:09.726Z,56.00
2019-03-30T05:13:16.133Z,56.10
2019-03-30T05:17:25.306Z,56.10
2019-03-30T05:21:31.647Z,56.20
2019-03-30T05:25:37.919Z,56.20
2019-03-30T05:29:44.294Z,56.20
2019-03-30T05:33:51.026Z,56.30
2019-03-30T05:37:57.319Z,56.30
2019-03-30T05:42:03.963Z,56.40
2019-03-30T05:46:13.383Z,56.50
2019-03-30T05:50:20.252Z,56.60
2019-03-30T05:54:27.081Z,56.60
2019-03-30T05:58:33.643Z,56.60
2019-03-30T06:02:41.137Z,56.70
2019-03-30T06:06:49.931Z,56.70
2019-03-30T06:10:56.758Z,56.80
2019-03-30T06:15:03.110Z,56.80
2019-03-30T06:19:09.500Z,56.90
2019-03-30T06:23:15.709Z,57.10
2019-03-30T06:27:21.995Z,57.10
2019-03-30T06:31:28.924Z,58.80
2019-03-30T06:35:35.184Z,57.50
2019-03-30T06:39:41.893Z,57.40
2019-03-30T06:43:48.137Z,57.60
2019-03-30T06:47:54.671Z,57.60
2019-03-30T06:52:02.554Z,57.60
2019-03-30T06:56:10.926Z,58.40
2019-03-30T07:00:17.766Z,58.00
2019-03-30T07:04:24.099Z,58.20
2019-03-30T07:08:30.767Z,58.40
2019-03-30T07:12:42.075Z,58.80
2019-03-30T07:16:48.283Z,59.20
2019-03-30T07:20:55.986Z,59.40
2019-03-30T07:25:03.585Z,59.10
2019-03-30T07:29:10.879Z,59.70
2019-03-30T07:33:18.480Z,59.80
2019-03-30T07:37:25.070Z,60.20
2019-03-30T07:41:33.734Z,60.20
2019-03-30T07:45:40.641Z,60.00
2019-03-30T07:49:46.879Z,60.50
2019-03-30T07:53:53.129Z,61.90
2019-03-30T07:58:00.884Z,61.30
2019-03-30T08:02:07.156Z,60.80
2019-03-30T08:06:13.599Z,61.70
2019-03-30T08:10:20.348Z,61.40
2019-03-30T08:14:26.657Z,61.60
2019-03-30T08:18:32.904Z,61.20
2019-03-30T08:22:39.333Z,61.20
2019-03-30T08:26:46.629Z,61.20
2019-03-30T08:30:52.788Z,61.60
2019-03-30T08:34:59.162Z,61.40
2019-03-30T08:39:06.843Z,61.30
2019-03-30T08:43:15.058Z,61.10
2019-03-30T08:47:21.438Z,62.10
2019-03-30T08:51:29.326Z,61.10
2019-03-30T08:55:35.683Z,61.60
2019-03-30T08:59:42.911Z,61.30
2019-03-30T09:03:50.391Z,61.60
2019-03-30T09:07:56.871Z,61.20
2019-03-30T09:12:03.353Z,61.20
2019-03-30T09:16:09.715Z,61.20
2019-03-30T09:20:15.986Z,61.30
2019-03-30T09:24:23.455Z,60.90
2019-03-30T09:28:30.754Z,60.90
2019-03-30T09:32:38.060Z,60.50
2019-03-30T09:36:44.722Z,60.80
2019-03-30T09:40:51.323Z,60.20
2019-03-30T09:44:57.700Z,60.60
2019-03-30T09:49:04.515Z,60.20
2019-03-30T09:53:11.017Z,60.20
2019-03-30T09:57:17.293Z,60.20
2019-03-30T10:01:23.553Z,59.80
2019-03-30T10:05:30.185Z,60.20
2019-03-30T10:09:36.353Z,59.50
2019-03-30T10:13:42.649Z,59.60
2019-03-30T10:17:48.884Z,59.30
2019-03-30T10:21:55.459Z,58.70
2019-03-30T10:26:01.665Z,58.60
2019-03-30T10:30:08.221Z,58.70
2019-03-30T10:34:14.485Z,56.90
2019-03-30T10:38:22.553Z,57.60
2019-03-30T10:42:28.814Z,57.30
2019-03-30T10:46:35.289Z,56.20
2019-03-30T10:50:41.749Z,56.20
2019-03-30T10:54:52.889Z,57.00
2019-03-30T10:58:56.074Z,55.70
2019-03-30T11:03:03.145Z,55.60
2019-03-30T11:07:09.583Z,56.00
2019-03-30T11:11:15.894Z,56.00
2019-03-30T11:15:23.974Z,54.20
2019-03-30T11:19:30.581Z,54.00
2019-03-30T11:23:36.913Z,54.60
2019-03-30T11:27:44.787Z,54.40
2019-03-30T11:31:51.240Z,53.90
2019-03-30T11:35:59.088Z,53.60
2019-03-30T11:40:07.785Z,53.90
2019-03-30T11:44:16.145Z,53.50
2019-03-30T11:48:22.397Z,52.60
2019-03-30T11:52:31.477Z,52.60
2019-03-30T11:56:42.235Z,53.10
2019-03-30T12:00:51.314Z,52.60
2019-03-30T12:04:57.607Z,52.90
2019-03-30T12:09:06.214Z,51.30
2019-03-30T12:13:21.390Z,50.90
2019-03-30T12:17:32.074Z,51.30
2019-03-30T12:21:49.482Z,51.70
2019-03-30T12:26:22.284Z,51.80
2019-03-30T12:39:51.775Z,50.80
2019-03-30T12:43:58.424Z,50.80
2019-03-30T12:48:15.387Z,50.50
2019-03-30T13:01:41.705Z,50.80
2019-03-30T13:05:52.685Z,49.50
2019-03-30T13:10:00.624Z,49.40
2019-03-30T13:14:26.104Z,48.50
2019-03-30T13:18:33.044Z,49.00
2019-03-30T13:22:43.061Z,46.90
2019-03-30T13:26:51.923Z,47.50
2019-03-30T13:30:59.778Z,47.60
2019-03-30T13:35:10.632Z,47.00
2019-03-30T13:39:19.949Z,46.60
2019-03-30T13:43:34.085Z,45.90
2019-03-30T13:47:41.474Z,46.20
2019-03-30T13:51:48.432Z,45.80
2019-03-30T13:55:56.625Z,44.80
2019-03-30T14:00:08.454Z,45.10
2019-03-30T14:04:13.353Z,45.30
2019-03-30T14:08:24.211Z,44.60
2019-03-30T14:12:33.347Z,43.10
2019-03-30T14:21:07.029Z,43.40
2019-03-30T14:40:02.496Z,41.70
2019-03-30T14:44:08.894Z,43.10
2019-03-30T14:48:15.262Z,43.20
2019-03-30T14:52:21.563Z,42.00
2019-03-30T14:56:27.819Z,41.70
2019-03-30T15:00:37.261Z,42.50
2019-03-30T15:04:46.709Z,42.50
2019-03-30T15:08:54.054Z,42.30
2019-03-30T15:13:01.381Z,41.00
2019-03-30T15:17:07.957Z,42.30
2019-03-30T15:21:14.719Z,42.00
2019-03-30T15:25:21.931Z,40.60
2019-03-30T15:29:30.176Z,41.30
2019-03-30T15:33:37.105Z,41.50
2019-03-30T15:37:44.860Z,41.30
2019-03-30T15:41:51.208Z,40.00
2019-03-30T15:45:57.533Z,41.20
2019-03-30T15:50:03.976Z,40.70
2019-03-30T15:54:10.258Z,40.60
2019-03-30T15:58:18.511Z,40.60
2019-03-30T16:02:24.786Z,40.80
2019-03-30T16:06:31.053Z,40.90
2019-03-30T16:10:40.525Z,40.60
2019-03-30T16:14:49.760Z,39.60
2019-03-30T16:18:56.087Z,40.40
2019-03-30T16:23:06.430Z,40.00
2019-03-30T16:27:13.104Z,40.40
2019-03-30T16:31:19.824Z,40.40
2019-03-30T16:35:28.025Z,40.60
2019-03-30T16:39:45.785Z,40.50
2019-03-30T16:43:52.625Z,40.10
2019-03-30T16:48:00.145Z,38.80
2019-03-30T16:52:06.343Z,40.10
2019-03-30T16:56:12.522Z,40.30
2019-03-30T17:00:18.706Z,40.30
2019-03-30T17:04:38.987Z,40.20
2019-03-30T17:08:49.450Z,40.00
2019-03-30T17:12:57.138Z,40.10
2019-03-30T17:17:05.933Z,40.00
2019-03-30T17:21:14.299Z,39.90
2019-03-30T17:25:21.368Z,39.80
2019-03-30T17:29:32.049Z,39.70
2019-03-30T17:33:38.546Z,40.10
2019-03-30T17:37:44.868Z,40.20
2019-03-30T17:41:52.421Z,40.20
2019-03-30T17:46:00.547Z,40.30
2019-03-30T17:50:15.878Z,40.30
2019-03-30T17:54:22.732Z,40.40
2019-03-30T17:58:30.622Z,39.20
2019-03-30T18:02:36.829Z,40.00
2019-03-30T18:06:45.029Z,40.40
2019-03-30T18:10:51.573Z,40.50
2019-03-30T18:14:57.800Z,40.50
2019-03-30T18:19:04.735Z,40.50
2019-03-30T18:23:10.964Z,40.60
2019-03-30T18:27:17.204Z,40.60
2019-03-30T18:31:24.172Z,40.60
2019-03-30T18:35:30.580Z,40.70
2019-03-30T18:39:36.998Z,40.70
2019-03-30T18:43:43.301Z,40.80
2019-03-30T18:47:51.597Z,40.80
2019-03-30T18:51:57.857Z,40.80
2019-03-30T18:56:04.239Z,40.90
2019-03-30T19:00:13.117Z,40.90
2019-03-30T19:04:23.081Z,41.40
2019-03-30T19:08:29.862Z,41.30
2019-03-30T19:12:36.195Z,41.20
2019-03-30T19:16:42.391Z,41.30
2019-03-30T19:20:49.002Z,41.40
2019-03-30T19:24:55.258Z,41.40
2019-03-30T19:29:01.797Z,41.60
2019-03-30T19:33:08.736Z,41.70
2019-03-30T19:37:15.482Z,41.80
2019-03-30T19:41:23.169Z,41.80
2019-03-30T19:45:30.129Z,42.00
2019-03-30T19:49:36.554Z,42.10
2019-03-30T19:53:43.664Z,42.20
2019-03-30T19:57:50.462Z,42.20
2019-03-30T20:01:57.068Z,42.40
2019-03-30T20:06:06.106Z,42.50
2019-03-30T20:10:12.588Z,42.50
2019-03-30T20:14:18.816Z,42.60
2019-03-30T20:18:25.324Z,42.80
2019-03-30T20:22:32.125Z,42.80
2019-03-30T20:26:38.544Z,42.90
2019-03-30T20:30:45.323Z,43.00
2019-03-30T20:34:52.247Z,43.00
2019-03-30T20:38:59.539Z,43.20
2019-03-30T20:43:07.501Z,43.20
2019-03-30T20:47:16.107Z,43.30
2019-03-30T20:51:23.464Z,43.40
2019-03-30T20:55:33.781Z,43.50
2019-03-30T20:59:40.109Z,43.60
2019-03-30T21:03:49.027Z,44.40
2019-03-30T21:07:56.962Z,43.80
2019-03-30T21:12:03.775Z,43.90
2019-03-30T21:16:10.781Z,44.00
2019-03-30T21:20:20.419Z,44.00
2019-03-30T21:24:30.953Z,44.10
2019-03-30T21:28:38.363Z,44.30
2019-03-30T21:32:44.744Z,44.30
2019-03-30T21:36:51.072Z,45.00
2019-03-30T21:40:57.368Z,44.40
2019-03-30T21:45:03.729Z,44.50
2019-03-30T21:49:10.033Z,44.60
2019-03-30T21:53:16.973Z,44.70
2019-03-30T21:57:23.931Z,44.80
2019-03-30T22:01:31.250Z,44.80
2019-03-30T22:05:37.575Z,44.90
2019-03-30T22:09:44.034Z,45.00
2019-03-30T22:13:50.843Z,45.40
2019-03-30T22:17:57.348Z,45.10
2019-03-30T22:22:03.689Z,45.20
2019-03-30T22:26:10.324Z,45.30
2019-03-30T22:30:24.856Z,45.30
2019-03-30T22:34:24.475Z,45.40
2019-03-30T22:38:30.770Z,45.50
2019-03-30T22:42:37.093Z,45.60
2019-03-30T22:46:43.574Z,45.70
2019-03-30T22:50:50.932Z,45.80
2019-03-30T22:54:58.086Z,45.80
2019-03-30T22:59:04.624Z,45.80
2019-03-30T23:03:11.920Z,45.90
2019-03-30T23:07:19.867Z,46.00
2019-03-30T23:11:26.133Z,46.10
2019-03-30T23:15:32.820Z,46.10
2019-03-30T23:19:40.827Z,46.20
2019-03-30T23:23:47.060Z,46.30
2019-03-30T23:27:55.853Z,46.40
2019-03-30T23:32:03.375Z,46.50
2019-03-30T23:36:11.073Z,46.60
2019-03-30T23:40:17.306Z,46.60
2019-03-30T23:44:23.604Z,46.80
2019-03-30T23:48:31.162Z,46.80
2019-03-30T23:52:37.646Z,46.90
2019-03-30T23:56:44.107Z,46.90
